LIRV

Rome Viterbo Airport

Airport
ICAO code
LIRV
IATA Code
VTR
Summary
ICAO Region
EUR
ICAO Territory
Location

Viterbo, Lazio

Serving
Rome
Elevation
992 ft
Coordinates
42° 26' 8" N , 12° 3' 42" E
KCC
Metar
Observation
LIRV 030755Z 07005KT CAVOK 05/03 Q1026
Station
Viterbo
Date/Time
2023-02-03 08:55:00
Wind direction
70°
Wind speed
05 kts
Lowest cloud amount
clouds and visibility OK
Temperature
5°C
Dew point
3°C
Humidity
86%
QNH
1026 hPa
Weather condition
n/a

Rome Viterbo Airport is a proposed re-use of Viterbo Air Force Base, a civilian, commercial and military airport about 80 kilometers north of Rome, Italy.

Climatology

Warm mediterranean climate (Köppen climate classification Csa)

Runways

Designator Length Width Surface Rops
04R/22L 590 34 ASP No/No
04L/22R 1005 25 ASP No/No
04C/22C 1300 50 GRS No/No

Airport map

Aerial View

SKYbrary Partners:

Safety knowledge contributed by: